createdAt,value
2022-09-28T00:01:21.414Z,92.80
2022-09-28T00:03:50.544Z,92.10
2022-09-28T00:06:22.105Z,92.40
2022-09-28T00:08:52.130Z,92.90
2022-09-28T00:11:20.992Z,92.60
2022-09-28T00:13:53.605Z,93.10
2022-09-28T00:16:28.233Z,92.60
2022-09-28T00:18:56.251Z,92.70
2022-09-28T00:21:26.996Z,93.00
2022-09-28T00:24:15.376Z,93.00
2022-09-28T00:26:48.709Z,93.00
2022-09-28T00:29:22.300Z,92.70
2022-09-28T00:31:52.991Z,91.80
2022-09-28T00:34:20.766Z,91.80
2022-09-28T00:36:48.649Z,91.60
2022-09-28T00:39:17.579Z,91.10
2022-09-28T00:41:46.359Z,90.90
2022-09-28T00:44:25.944Z,90.60
2022-09-28T00:47:07.144Z,90.80
2022-09-28T00:50:11.320Z,92.70
2022-09-28T00:52:50.455Z,92.90
2022-09-28T00:55:22.061Z,93.00
2022-09-28T00:57:56.122Z,93.40
2022-09-28T01:00:24.052Z,93.30
2022-09-28T01:02:51.604Z,93.00
2022-09-28T01:05:20.787Z,92.60
2022-09-28T01:07:48.665Z,92.70
2022-09-28T01:10:16.289Z,92.60
2022-09-28T01:12:43.793Z,92.30
2022-09-28T01:15:11.873Z,92.20
2022-09-28T01:17:43.160Z,91.60
2022-09-28T01:20:35.249Z,91.40
2022-09-28T01:23:30.257Z,90.90
2022-09-28T01:26:16.048Z,90.30
2022-09-28T01:28:44.974Z,90.40
2022-09-28T01:31:15.227Z,90.80
2022-09-28T01:33:55.752Z,91.10
2022-09-28T01:36:28.335Z,91.50
2022-09-28T01:39:26.427Z,92.00
2022-09-28T01:41:59.350Z,91.90
2022-09-28T01:44:30.245Z,91.70
2022-09-28T01:47:05.235Z,91.70
2022-09-28T01:49:41.933Z,90.50
2022-09-28T01:52:54.637Z,90.80
2022-09-28T01:55:33.381Z,90.90
2022-09-28T01:58:36.446Z,91.10
2022-09-28T02:01:13.299Z,90.80
2022-09-28T02:03:48.987Z,90.60
2022-09-28T02:06:26.592Z,90.80
2022-09-28T02:08:59.434Z,91.00
2022-09-28T02:11:41.677Z,92.00
2022-09-28T02:14:12.549Z,93.00
2022-09-28T02:16:46.338Z,93.20
2022-09-28T02:19:15.323Z,93.10
2022-09-28T02:21:54.818Z,93.00
2022-09-28T02:24:35.398Z,92.60
2022-09-28T02:27:04.493Z,92.40
2022-09-28T02:29:34.482Z,92.70
2022-09-28T02:32:02.190Z,91.30
2022-09-28T02:34:29.587Z,92.90
2022-09-28T02:36:57.033Z,93.90
2022-09-28T02:39:24.811Z,94.20
2022-09-28T02:42:07.032Z,94.00
2022-09-28T02:44:50.698Z,93.70
2022-09-28T02:47:36.899Z,93.20
2022-09-28T02:50:37.470Z,93.10
2022-09-28T02:53:20.991Z,92.80
2022-09-28T02:56:13.063Z,93.10
2022-09-28T02:59:01.953Z,92.40
2022-09-28T03:01:41.132Z,93.20
2022-09-28T03:04:37.479Z,93.40
2022-09-28T03:07:35.566Z,93.20
2022-09-28T03:10:39.011Z,93.00
2022-09-28T03:13:07.765Z,93.90
2022-09-28T03:15:46.460Z,93.70
2022-09-28T03:18:16.609Z,94.80
2022-09-28T03:20:44.157Z,95.60
2022-09-28T03:23:26.628Z,95.60
2022-09-28T03:25:54.679Z,95.50
2022-09-28T03:28:22.259Z,94.90
2022-09-28T03:30:52.826Z,94.20
2022-09-28T03:33:20.902Z,94.00
2022-09-28T03:35:49.723Z,93.70
2022-09-28T03:38:18.967Z,94.00
2022-09-28T03:41:10.721Z,94.30
2022-09-28T03:43:41.082Z,94.20
2022-09-28T03:46:08.805Z,93.90
2022-09-28T03:48:42.324Z,93.50
2022-09-28T03:51:11.798Z,92.90
2022-09-28T03:53:40.304Z,92.80
2022-09-28T03:56:13.617Z,93.00
2022-09-28T03:58:42.098Z,92.80
2022-09-28T04:01:16.755Z,93.00
2022-09-28T04:03:47.407Z,93.50
2022-09-28T04:06:15.675Z,93.20
2022-09-28T04:08:43.583Z,93.70
2022-09-28T04:11:11.915Z,93.90
2022-09-28T04:13:39.541Z,93.60
2022-09-28T04:16:12.045Z,93.40
2022-09-28T04:18:42.677Z,93.40
2022-09-28T04:21:32.607Z,93.10
2022-09-28T04:24:08.327Z,93.40
2022-09-28T04:26:36.857Z,93.20
2022-09-28T04:29:22.507Z,92.60
2022-09-28T04:31:55.460Z,92.60
2022-09-28T04:34:37.875Z,93.00
2022-09-28T04:37:07.204Z,93.30
2022-09-28T04:39:34.510Z,93.00
2022-09-28T04:42:02.032Z,93.10
2022-09-28T04:44:29.997Z,93.30
2022-09-28T04:47:04.978Z,93.40
2022-09-28T04:49:35.523Z,93.40
2022-09-28T04:52:17.858Z,93.20
2022-09-28T04:54:46.033Z,93.10
2022-09-28T04:57:13.830Z,93.40
2022-09-28T04:59:41.771Z,93.20
2022-09-28T05:02:09.321Z,93.10
2022-09-28T05:04:56.835Z,92.90
2022-09-28T05:07:36.961Z,94.50
2022-09-28T05:10:07.437Z,94.70
2022-09-28T05:12:36.255Z,95.10
2022-09-28T05:15:06.045Z,95.40
2022-09-28T05:17:35.427Z,95.50
2022-09-28T05:20:22.903Z,94.90
2022-09-28T05:22:51.638Z,95.20
2022-09-28T05:25:19.888Z,95.30
2022-09-28T05:27:57.260Z,95.30
2022-09-28T05:30:44.723Z,95.00
2022-09-28T05:33:45.015Z,94.80
2022-09-28T05:36:14.023Z,94.40
2022-09-28T05:38:43.225Z,94.10
2022-09-28T05:41:13.579Z,93.50
2022-09-28T05:43:41.275Z,94.00
2022-09-28T05:46:08.688Z,94.30
2022-09-28T05:48:39.026Z,94.50
2022-09-28T05:51:06.850Z,94.40
2022-09-28T05:53:34.196Z,94.30
2022-09-28T05:56:01.829Z,93.60
2022-09-28T05:58:34.902Z,94.00
2022-09-28T06:01:02.806Z,94.00
2022-09-28T06:03:31.308Z,94.60
2022-09-28T06:06:02.640Z,94.80
2022-09-28T06:08:34.068Z,94.50
2022-09-28T06:11:15.620Z,94.30
2022-09-28T06:13:43.011Z,94.10
2022-09-28T06:16:16.888Z,94.10
2022-09-28T06:18:44.814Z,94.10
2022-09-28T06:21:13.796Z,93.90
2022-09-28T06:23:49.010Z,93.30
2022-09-28T06:26:18.382Z,93.50
2022-09-28T06:28:46.299Z,94.80
2022-09-28T06:31:13.876Z,95.00
2022-09-28T06:33:46.181Z,95.10
2022-09-28T06:36:14.108Z,95.50
2022-09-28T06:38:41.434Z,96.00
2022-09-28T06:41:09.840Z,96.00
2022-09-28T06:43:40.065Z,96.00
2022-09-28T06:46:14.412Z,95.70
2022-09-28T06:48:50.863Z,95.30
2022-09-28T06:51:41.071Z,95.00
2022-09-28T06:54:38.918Z,95.50
2022-09-28T06:57:22.225Z,95.30
2022-09-28T06:59:49.613Z,95.50
2022-09-28T07:02:17.267Z,95.20
2022-09-28T07:04:44.879Z,95.50
2022-09-28T07:07:38.908Z,96.10
2022-09-28T07:10:44.747Z,96.20
2022-09-28T07:13:51.640Z,95.90
2022-09-28T07:16:25.689Z,95.50
2022-09-28T07:18:54.757Z,95.00
2022-09-28T07:21:29.228Z,94.60
2022-09-28T07:24:00.898Z,94.40
2022-09-28T07:26:33.380Z,93.40
2022-09-28T07:29:14.226Z,92.20
2022-09-28T07:32:02.018Z,92.50
2022-09-28T07:34:29.757Z,92.30
2022-09-28T07:37:07.286Z,91.90
2022-09-28T07:39:55.924Z,92.70
2022-09-28T07:42:23.716Z,93.20
2022-09-28T07:44:51.907Z,93.00
2022-09-28T07:47:30.773Z,92.40
2022-09-28T07:50:18.605Z,92.30
2022-09-28T07:53:23.718Z,92.20
2022-09-28T07:56:09.867Z,91.80
2022-09-28T07:58:50.978Z,90.10
2022-09-28T08:01:27.506Z,89.20
2022-09-28T08:03:56.438Z,87.60
2022-09-28T08:06:24.300Z,88.60
2022-09-28T08:08:53.018Z,87.70
2022-09-28T08:11:22.277Z,88.20
2022-09-28T08:14:22.032Z,86.90
2022-09-28T08:17:01.367Z,87.10
2022-09-28T08:20:03.179Z,87.20
2022-09-28T08:22:32.445Z,84.70
2022-09-28T08:25:01.277Z,86.90
2022-09-28T08:27:29.922Z,86.00
2022-09-28T08:29:57.260Z,85.00
2022-09-28T08:32:51.044Z,86.40
2022-09-28T08:35:36.892Z,87.80
2022-09-28T08:38:27.820Z,88.70
2022-09-28T08:41:31.744Z,87.80
2022-09-28T08:44:25.911Z,87.50
2022-09-28T08:47:47.825Z,86.50
2022-09-28T08:50:31.984Z,85.50
2022-09-28T08:53:48.469Z,87.00
2022-09-28T08:56:45.282Z,85.80
2022-09-28T08:59:17.557Z,86.80
2022-09-28T09:02:19.197Z,84.00
2022-09-28T09:04:47.826Z,84.90
2022-09-28T09:07:46.763Z,86.40
2022-09-28T09:10:46.090Z,87.00
2022-09-28T09:13:34.643Z,85.10
2022-09-28T09:16:17.826Z,84.70
2022-09-28T09:19:17.497Z,85.90
2022-09-28T09:22:17.041Z,81.10
2022-09-28T09:25:04.163Z,81.70
2022-09-28T09:27:51.008Z,82.60
2022-09-28T09:30:26.263Z,82.90
2022-09-28T09:33:33.661Z,83.10
2022-09-28T09:36:32.938Z,84.40
2022-09-28T09:39:38.227Z,83.10
2022-09-28T09:42:46.218Z,83.40
2022-09-28T09:45:56.416Z,83.30
2022-09-28T09:49:38.976Z,84.70
2022-09-28T09:52:28.139Z,86.20
2022-09-28T09:55:11.506Z,85.90
2022-09-28T09:58:03.401Z,85.70
2022-09-28T10:01:02.191Z,84.20
2022-09-28T10:03:52.400Z,83.70
2022-09-28T10:06:37.368Z,82.80
2022-09-28T10:09:15.056Z,84.80
2022-09-28T10:11:50.389Z,84.10
2022-09-28T10:14:22.927Z,85.50
2022-09-28T10:16:59.053Z,85.10
2022-09-28T10:19:45.137Z,83.10
2022-09-28T10:22:39.887Z,81.50
2022-09-28T10:25:14.008Z,79.80
2022-09-28T10:27:46.231Z,79.70
2022-09-28T10:30:20.719Z,80.00
2022-09-28T10:32:51.609Z,82.00
2022-09-28T10:35:18.918Z,81.40
2022-09-28T10:38:20.771Z,80.40
2022-09-28T10:41:10.574Z,81.70
2022-09-28T10:44:11.485Z,82.80
2022-09-28T10:47:10.081Z,83.00
2022-09-28T10:49:47.360Z,82.60
2022-09-28T10:52:43.283Z,81.30
2022-09-28T10:55:32.897Z,80.60
2022-09-28T10:58:26.844Z,80.40
2022-09-28T11:01:04.224Z,80.50
2022-09-28T11:03:34.439Z,83.30
2022-09-28T11:06:08.475Z,83.60
2022-09-28T11:08:44.562Z,80.70
2022-09-28T11:11:21.709Z,81.90
2022-09-28T11:14:01.591Z,76.40
2022-09-28T11:16:36.585Z,75.20
2022-09-28T11:19:20.863Z,73.90
2022-09-28T11:21:49.503Z,71.10
2022-09-28T11:24:26.226Z,74.20
2022-09-28T11:27:00.469Z,73.50
2022-09-28T11:29:46.277Z,75.30
2022-09-28T11:32:44.625Z,77.00
2022-09-28T11:35:32.440Z,74.70
2022-09-28T11:38:36.469Z,72.40
2022-09-28T11:42:18.164Z,73.60
2022-09-28T11:44:55.810Z,73.30
2022-09-28T11:47:42.195Z,72.70
2022-09-28T11:50:24.331Z,71.20
2022-09-28T11:53:25.655Z,72.50
2022-09-28T11:56:10.109Z,68.30
2022-09-28T11:58:42.853Z,68.20
2022-09-28T12:01:36.275Z,69.30
2022-09-28T12:04:39.303Z,70.30
2022-09-28T12:07:19.207Z,71.60
2022-09-28T12:09:54.300Z,72.90
2022-09-28T12:12:36.473Z,72.90
2022-09-28T12:15:25.632Z,72.70
2022-09-28T12:18:05.477Z,72.50
2022-09-28T12:21:05.081Z,72.80
2022-09-28T12:23:36.149Z,75.00
2022-09-28T12:26:11.238Z,74.70
2022-09-28T12:28:51.918Z,73.90
2022-09-28T12:31:32.273Z,70.00
2022-09-28T12:34:01.334Z,68.50
2022-09-28T12:36:41.800Z,67.40
2022-09-28T12:39:23.999Z,64.50
2022-09-28T12:42:07.347Z,66.20
2022-09-28T12:45:27.331Z,63.60
2022-09-28T12:48:09.135Z,63.20
2022-09-28T12:50:58.156Z,63.30
2022-09-28T12:54:02.256Z,63.00
2022-09-28T12:56:52.390Z,63.00
2022-09-28T12:59:31.373Z,61.30
2022-09-28T13:02:30.065Z,62.00
2022-09-28T13:05:16.387Z,63.40
2022-09-28T13:07:55.917Z,65.60
2022-09-28T13:10:41.104Z,66.80
2022-09-28T13:13:29.653Z,64.30
2022-09-28T13:16:13.086Z,65.20
2022-09-28T13:18:53.441Z,68.00
2022-09-28T13:21:26.481Z,67.80
2022-09-28T13:24:14.339Z,67.10
2022-09-28T13:26:47.853Z,65.90
2022-09-28T13:29:19.532Z,67.60
2022-09-28T13:31:54.740Z,65.60
2022-09-28T13:34:27.015Z,67.70
2022-09-28T13:37:26.679Z,67.30
2022-09-28T13:39:56.753Z,68.70
2022-09-28T13:42:36.611Z,68.20
2022-09-28T13:45:22.876Z,68.40
2022-09-28T13:48:12.484Z,68.30
2022-09-28T13:51:01.463Z,68.30
2022-09-28T13:53:55.535Z,69.50
2022-09-28T13:56:22.973Z,69.30
2022-09-28T13:59:12.492Z,69.40
2022-09-28T14:01:51.774Z,65.60
2022-09-28T14:04:24.191Z,66.90
2022-09-28T14:06:57.668Z,67.10
2022-09-28T14:09:45.862Z,65.00
2022-09-28T14:12:51.615Z,65.40
2022-09-28T14:15:40.498Z,64.60
2022-09-28T14:18:15.328Z,65.80
2022-09-28T14:21:03.106Z,67.70
2022-09-28T14:24:03.533Z,67.30
2022-09-28T14:27:00.467Z,67.40
2022-09-28T14:29:30.814Z,67.30
2022-09-28T14:32:09.194Z,69.50
2022-09-28T14:34:39.568Z,68.60
2022-09-28T14:37:45.925Z,67.70
2022-09-28T14:41:11.434Z,68.30
2022-09-28T14:43:44.564Z,67.80
2022-09-28T14:46:21.456Z,67.70
2022-09-28T14:49:17.569Z,69.20
2022-09-28T14:51:47.920Z,64.10
2022-09-28T14:54:18.185Z,65.80
2022-09-28T14:56:57.177Z,66.10
2022-09-28T14:59:30.515Z,67.20
2022-09-28T15:02:01.442Z,65.20
2022-09-28T15:04:32.305Z,66.70
2022-09-28T15:07:00.186Z,66.30
2022-09-28T15:09:36.058Z,67.50
2022-09-28T15:12:06.040Z,67.70
2022-09-28T15:14:41.798Z,67.00
2022-09-28T15:17:15.019Z,67.80
2022-09-28T15:20:20.559Z,66.90
2022-09-28T15:22:50.106Z,67.30
2022-09-28T15:25:21.008Z,67.80
2022-09-28T15:27:54.903Z,68.30
2022-09-28T15:30:25.632Z,68.80
2022-09-28T15:32:57.148Z,67.20
2022-09-28T15:35:27.059Z,67.40
2022-09-28T15:37:55.746Z,67.30
2022-09-28T15:40:35.109Z,67.40
2022-09-28T15:43:10.534Z,66.20
2022-09-28T15:45:51.283Z,65.60
2022-09-28T15:48:56.806Z,64.70
2022-09-28T15:51:25.544Z,64.30
2022-09-28T15:54:03.210Z,64.60
2022-09-28T15:56:31.422Z,64.60
2022-09-28T15:59:14.356Z,65.10
2022-09-28T16:01:44.284Z,65.90
2022-09-28T16:04:38.752Z,65.60
2022-09-28T16:07:28.130Z,65.90
2022-09-28T16:10:12.712Z,66.00
2022-09-28T16:12:58.360Z,65.90
2022-09-28T16:15:41.068Z,65.60
2022-09-28T16:18:20.839Z,65.60
2022-09-28T16:20:53.648Z,66.50
2022-09-28T16:23:29.588Z,66.40
2022-09-28T16:26:03.564Z,66.00
2022-09-28T16:28:35.311Z,66.40
2022-09-28T16:31:09.373Z,67.30
2022-09-28T16:33:54.912Z,68.00
2022-09-28T16:36:23.461Z,69.00
2022-09-28T16:38:53.138Z,69.30
2022-09-28T16:41:25.006Z,69.20
2022-09-28T16:44:01.414Z,70.40
2022-09-28T16:46:36.485Z,70.70
2022-09-28T16:49:06.493Z,70.20
2022-09-28T16:51:34.891Z,69.80
2022-09-28T16:54:39.475Z,70.30
2022-09-28T16:57:11.496Z,70.80
2022-09-28T16:59:39.173Z,71.00
2022-09-28T17:02:45.129Z,70.10
2022-09-28T17:05:08.595Z,70.10
2022-09-28T17:07:36.020Z,69.30
2022-09-28T17:10:05.075Z,69.40
2022-09-28T17:12:34.431Z,69.70
2022-09-28T17:15:01.946Z,70.20
2022-09-28T17:17:31.835Z,69.80
2022-09-28T17:19:59.557Z,71.80
2022-09-28T17:22:27.175Z,72.80
2022-09-28T17:24:54.883Z,72.20
2022-09-28T17:27:22.505Z,72.50
2022-09-28T17:29:52.359Z,72.80
2022-09-28T17:32:22.041Z,72.90
2022-09-28T17:35:00.718Z,72.60
2022-09-28T17:37:41.035Z,72.60
2022-09-28T17:40:23.854Z,73.20
2022-09-28T17:42:55.527Z,73.80
2022-09-28T17:45:28.761Z,74.20
2022-09-28T17:47:57.931Z,74.20
2022-09-28T17:50:34.473Z,74.30
2022-09-28T17:53:08.954Z,75.20
2022-09-28T17:55:41.094Z,75.60
2022-09-28T17:58:18.372Z,75.00
2022-09-28T18:00:53.267Z,74.10
2022-09-28T18:03:26.857Z,74.00
2022-09-28T18:06:12.727Z,74.10
2022-09-28T18:08:44.581Z,74.60
2022-09-28T18:11:14.910Z,74.90
2022-09-28T18:13:47.692Z,75.60
2022-09-28T18:16:18.455Z,76.10
2022-09-28T18:18:53.291Z,76.30
2022-09-28T18:21:24.072Z,76.10
2022-09-28T18:23:54.944Z,76.50
2022-09-28T18:26:24.413Z,77.10
2022-09-28T18:28:55.251Z,77.60
2022-09-28T18:31:24.330Z,78.70
2022-09-28T18:33:59.109Z,79.70
2022-09-28T18:36:30.663Z,81.20
2022-09-28T18:39:01.902Z,82.50
2022-09-28T18:41:30.564Z,82.60
2022-09-28T18:44:05.164Z,84.10
2022-09-28T18:46:37.034Z,83.70
2022-09-28T18:49:06.972Z,83.60
2022-09-28T18:51:36.215Z,83.90
2022-09-28T18:54:08.066Z,84.70
2022-09-28T18:56:38.170Z,86.40
2022-09-28T18:59:11.921Z,85.70
2022-09-28T19:01:41.740Z,86.40
2022-09-28T19:04:11.977Z,86.20
2022-09-28T19:06:42.587Z,86.70
2022-09-28T19:09:12.397Z,86.70
2022-09-28T19:11:40.889Z,86.20
2022-09-28T19:14:13.038Z,86.30
2022-09-28T19:16:42.183Z,87.20
2022-09-28T19:19:13.376Z,87.90
2022-09-28T19:21:45.867Z,89.00
2022-09-28T19:24:36.279Z,89.90
2022-09-28T19:27:45.404Z,90.50
2022-09-28T19:30:22.707Z,90.60
2022-09-28T19:32:56.267Z,90.80
2022-09-28T19:35:26.457Z,86.60
2022-09-28T19:37:55.733Z,85.80
2022-09-28T19:40:25.303Z,83.20
2022-09-28T19:43:30.026Z,81.90
2022-09-28T19:49:51.259Z,88.60
2022-09-28T19:55:56.203Z,90.30
2022-09-28T19:58:36.687Z,90.30
2022-09-28T20:01:10.181Z,90.00
2022-09-28T20:03:39.761Z,90.00
2022-09-28T20:06:13.822Z,89.70
2022-09-28T20:08:48.221Z,90.00
2022-09-28T20:11:18.325Z,90.60
2022-09-28T20:13:45.756Z,91.00
2022-09-28T20:16:17.998Z,91.50
2022-09-28T20:18:52.426Z,91.50
2022-09-28T20:21:26.523Z,92.60
2022-09-28T20:23:54.378Z,93.20
2022-09-28T20:26:22.338Z,93.30
2022-09-28T20:28:50.459Z,93.10
2022-09-28T20:31:25.497Z,92.80
2022-09-28T20:33:55.118Z,92.50
2022-09-28T20:36:25.812Z,92.00
2022-09-28T20:38:57.227Z,91.60
2022-09-28T20:41:25.898Z,91.10
2022-09-28T20:43:56.232Z,92.80
2022-09-28T20:46:26.859Z,93.20
2022-09-28T20:48:55.958Z,93.20
2022-09-28T20:51:26.392Z,92.60
2022-09-28T20:53:58.192Z,92.40
2022-09-28T20:56:36.571Z,92.10
2022-09-28T20:59:08.661Z,93.10
2022-09-28T21:01:39.727Z,93.40
2022-09-28T21:04:11.151Z,93.60
2022-09-28T21:06:43.585Z,93.90
2022-09-28T21:09:14.456Z,94.00
2022-09-28T21:11:44.354Z,92.90
2022-09-28T21:14:12.910Z,92.80
2022-09-28T21:16:42.538Z,93.30
2022-09-28T21:19:10.632Z,94.30
2022-09-28T21:21:40.989Z,94.70
2022-09-28T21:24:09.395Z,94.30
2022-09-28T21:26:39.060Z,94.40
2022-09-28T21:29:10.478Z,95.10
2022-09-28T21:31:48.241Z,95.40
2022-09-28T21:34:19.699Z,95.30
2022-09-28T21:36:51.580Z,95.00
2022-09-28T21:39:20.443Z,94.80
2022-09-28T21:41:49.672Z,94.50
2022-09-28T21:44:17.414Z,94.60
2022-09-28T21:46:45.713Z,94.30
2022-09-28T21:49:15.650Z,93.90
2022-09-28T21:51:43.062Z,93.70
2022-09-28T21:54:12.222Z,93.50
2022-09-28T21:56:40.300Z,93.40
2022-09-28T21:59:08.059Z,93.20
2022-09-28T22:01:35.949Z,93.10
2022-09-28T22:04:03.496Z,94.00
2022-09-28T22:06:30.894Z,94.90
2022-09-28T22:08:58.509Z,94.90
2022-09-28T22:11:28.394Z,94.80
2022-09-28T22:13:59.853Z,95.10
2022-09-28T22:16:30.494Z,95.50
2022-09-28T22:18:58.819Z,94.90
2022-09-28T22:21:29.458Z,94.90
2022-09-28T22:24:03.595Z,94.40
2022-09-28T22:26:32.287Z,94.10
2022-09-28T22:29:02.085Z,94.40
2022-09-28T22:31:32.481Z,94.50
2022-09-28T22:34:09.972Z,94.10
2022-09-28T22:36:37.501Z,94.60
2022-09-28T22:39:05.437Z,94.40
2022-09-28T22:41:33.263Z,94.20
2022-09-28T22:44:00.929Z,94.00
2022-09-28T22:46:31.249Z,94.00
2022-09-28T22:49:00.111Z,93.60
2022-09-28T22:51:28.972Z,94.60
2022-09-28T22:53:59.181Z,94.60
2022-09-28T22:56:26.731Z,94.40
2022-09-28T22:58:54.245Z,94.30
2022-09-28T23:01:24.549Z,94.30
2022-09-28T23:03:53.329Z,93.10
2022-09-28T23:06:23.391Z,94.10
2022-09-28T23:08:51.551Z,94.80
2022-09-28T23:11:19.356Z,95.10
2022-09-28T23:13:50.809Z,94.80
2022-09-28T23:16:19.015Z,94.40
2022-09-28T23:18:46.322Z,93.90
2022-09-28T23:21:15.804Z,93.40
2022-09-28T23:23:43.811Z,93.90
2022-09-28T23:26:16.143Z,92.90
2022-09-28T23:28:43.873Z,93.00
2022-09-28T23:31:17.515Z,94.50
2022-09-28T23:33:45.205Z,95.60
2022-09-28T23:36:13.299Z,95.40
2022-09-28T23:38:41.423Z,94.50
2022-09-28T23:41:10.006Z,94.90
2022-09-28T23:43:38.472Z,94.50
2022-09-28T23:46:07.620Z,94.10
2022-09-28T23:48:35.374Z,93.90
2022-09-28T23:51:03.821Z,94.10
2022-09-28T23:53:32.478Z,94.00
2022-09-28T23:55:59.892Z,94.00
2022-09-28T23:58:27.701Z,94.10
